TimeMDT,TemperatureF,Dew PointF,Humidity,Sea Level PressureIn,VisibilityMPH,Wind Direction,Wind SpeedMPH,Gust SpeedMPH,PrecipitationIn,Events,Conditions,WindDirDegrees,DateUTC
12:53 AM,21.0,12.9,71,29.76,10.0,North,8.1,-,N/A,,Clear,360,2012-10-25 06:53:00
1:53 AM,19.0,12.9,77,29.81,10.0,North,6.9,-,N/A,,Clear,360,2012-10-25 07:53:00
2:41 AM,19.4,15.8,86,29.99,4.0,North,5.8,-,0.00,Snow,Light Snow,350,2012-10-25 08:41:00
2:53 AM,19.9,16.0,85,29.81,8.0,North,5.8,-,0.00,,Overcast,360,2012-10-25 08:53:00
3:53 AM,19.0,16.0,88,29.85,5.0,North,4.6,-,0.00,Snow,Light Snow,10,2012-10-25 09:53:00
4:07 AM,19.4,14.0,80,30.00,10.0,North,3.5,-,0.00,,Scattered Clouds,350,2012-10-25 10:07:00
4:53 AM,19.0,12.9,77,29.88,5.0,NNW,5.8,-,0.00,Snow,Light Snow,340,2012-10-25 10:53:00
5:07 AM,17.6,15.8,93,30.03,9.0,North,8.1,-,0.00,,Overcast,360,2012-10-25 11:07:00
5:22 AM,19.4,12.2,74,30.03,10.0,WNW,9.2,-,0.00,,Overcast,300,2012-10-25 11:22:00
5:46 AM,17.6,12.2,79,30.04,6.0,NW,9.2,18.4,0.00,Snow,Light Snow,320,2012-10-25 11:46:00
5:53 AM,18.0,12.9,81,29.94,8.0,NW,10.4,16.1,0.00,Snow,Light Snow,310,2012-10-25 11:53:00
6:45 AM,17.6,12.2,79,30.06,9.0,NW,6.9,-,0.00,,Overcast,320,2012-10-25 12:45:00
6:53 AM,18.0,12.0,78,29.96,10.0,NNW,6.9,-,0.00,,Overcast,340,2012-10-25 12:53:00
7:53 AM,18.0,12.0,78,29.98,9.0,North,5.8,-,0.00,Snow,Light Snow,350,2012-10-25 13:53:00
8:53 AM,19.9,10.9,68,30.01,10.0,NNW,5.8,-,0.00,,Partly Cloudy,340,2012-10-25 14:53:00
9:53 AM,21.9,8.1,55,30.00,10.0,Variable,3.5,-,N/A,,Partly Cloudy,0,2012-10-25 15:53:00
10:53 AM,25.0,8.1,49,29.98,10.0,NW,10.4,-,N/A,,Clear,320,2012-10-25 16:53:00
11:53 AM,24.1,6.1,46,29.99,10.0,NNW,15.0,21.9,N/A,,Overcast,330,2012-10-25 17:53:00
12:53 PM,24.1,10.9,57,29.98,10.0,NW,11.5,19.6,N/A,,Overcast,320,2012-10-25 18:53:00
1:53 PM,23.0,15.1,72,29.99,10.0,North,10.4,-,0.00,,Mostly Cloudy,350,2012-10-25 19:53:00
2:40 PM,21.2,14.0,74,30.05,2.5,North,5.8,-,0.00,Snow,Light Snow,350,2012-10-25 20:40:00
2:53 PM,21.9,14.0,72,30.00,5.0,NNW,6.9,-,0.00,Snow,Light Snow,340,2012-10-25 20:53:00
3:53 PM,21.9,14.0,72,30.01,8.0,NW,11.5,18.4,0.00,,Overcast,320,2012-10-25 21:53:00
4:22 PM,21.2,15.8,80,30.07,2.0,NNW,5.8,-,0.00,Snow,Light Snow,340,2012-10-25 22:22:00
4:34 PM,21.2,14.0,74,30.06,9.0,North,3.5,-,0.00,,Overcast,350,2012-10-25 22:34:00
4:53 PM,21.0,12.9,71,30.04,10.0,NW,8.1,-,0.00,,Overcast,320,2012-10-25 22:53:00
5:04 PM,21.2,15.8,80,30.09,2.5,WNW,11.5,-,0.00,Snow,Light Snow,300,2012-10-25 23:04:00
5:12 PM,19.4,15.8,86,30.09,1.2,NW,6.9,-,0.00,Snow,Light Snow,310,2012-10-25 23:12:00
5:17 PM,19.4,15.8,86,30.08,3.0,NNW,5.8,-,0.00,Snow,Light Snow,340,2012-10-25 23:17:00
5:53 PM,19.9,14.0,78,30.06,10.0,Calm,Calm,-,0.00,,Overcast,0,2012-10-25 23:53:00
6:53 PM,19.9,16.0,85,30.08,4.0,NNE,6.9,-,0.00,Snow,Light Snow,20,2012-10-26 00:53:00
7:02 PM,19.4,17.6,93,30.11,2.5,North,8.1,-,0.00,Snow,Light Snow,350,2012-10-26 01:02:00
7:09 PM,19.4,17.6,93,30.11,0.8,North,9.2,-,0.00,Snow,Light Snow,360,2012-10-26 01:09:00
7:21 PM,19.4,17.6,93,30.11,0.5,North,8.1,-,0.02,Fog-Snow,Snow,10,2012-10-26 01:21:00
7:39 PM,17.6,15.8,93,30.12,1.0,NNW,6.9,-,0.04,Snow,Light Snow,340,2012-10-26 01:39:00
7:49 PM,19.4,17.6,93,30.12,0.8,NW,4.6,-,0.05,Snow,Light Snow,320,2012-10-26 01:49:00
7:53 PM,18.0,17.1,96,30.12,0.5,Variable,4.6,-,0.06,Fog-Snow,Snow,0,2012-10-26 01:53:00
8:02 PM,17.6,15.8,93,30.13,0.8,WNW,13.8,-,0.00,Snow,Light Snow,290,2012-10-26 02:02:00
8:11 PM,17.6,15.8,93,30.14,0.5,NW,12.7,-,0.01,Fog-Snow,Snow,320,2012-10-26 02:11:00
8:51 PM,17.6,15.8,93,30.15,1.0,NNW,5.8,-,0.04,Snow,Light Snow,340,2012-10-26 02:51:00
8:53 PM,17.1,15.1,92,30.13,1.2,NNW,6.9,-,0.04,Snow,Light Snow,340,2012-10-26 02:53:00
9:06 PM,17.6,12.2,79,30.15,2.0,NW,4.6,-,0.02,Snow,Light Snow,320,2012-10-26 03:06:00
9:15 PM,15.8,12.2,86,30.15,5.0,Variable,4.6,-,0.02,Snow,Light Snow,0,2012-10-26 03:15:00
9:28 PM,15.8,12.2,86,30.15,1.8,WNW,5.8,-,0.02,Snow,Light Snow,290,2012-10-26 03:28:00
9:49 PM,15.8,12.2,86,30.15,3.0,Calm,Calm,-,0.02,Snow,Light Snow,0,2012-10-26 03:49:00
9:53 PM,16.0,12.0,84,30.13,3.0,Calm,Calm,-,0.02,Snow,Light Snow,0,2012-10-26 03:53:00
10:15 PM,15.8,10.4,79,30.15,10.0,Calm,Calm,-,0.00,,Overcast,0,2012-10-26 04:15:00
10:53 PM,15.1,10.9,84,30.12,6.0,WNW,3.5,-,0.00,Snow,Light Snow,290,2012-10-26 04:53:00
11:53 PM,14.0,10.0,84,30.14,10.0,North,3.5,-,0.00,,Overcast,360,2012-10-26 05:53:00